createdAt,value
2018-04-23T00:00:05.045Z,15.10
2018-04-23T00:02:31.437Z,14.33
2018-04-23T00:04:59.442Z,16.37
2018-04-23T00:07:25.844Z,15.07
2018-04-23T00:09:52.978Z,15.63
2018-04-23T00:12:19.369Z,15.87
2018-04-23T00:14:45.754Z,14.57
2018-04-23T00:17:12.891Z,16.03
2018-04-23T00:19:40.771Z,17.10
2018-04-23T00:22:07.904Z,17.10
2018-04-23T00:24:35.781Z,17.53
2018-04-23T00:27:02.212Z,16.40
2018-04-23T00:29:28.618Z,17.47
2018-04-23T00:31:55.012Z,17.13
2018-04-23T00:34:21.435Z,16.10
2018-04-23T00:36:48.583Z,16.10
2018-04-23T00:39:15.011Z,14.13
2018-04-23T00:41:42.154Z,12.67
2018-04-23T00:44:08.545Z,13.70
2018-04-23T00:46:34.942Z,13.87
2018-04-23T00:49:01.366Z,16.13
2018-04-23T00:51:27.781Z,14.53
2018-04-23T00:53:54.160Z,15.27
2018-04-23T00:56:20.554Z,13.80
2018-04-23T00:58:47.705Z,14.00
2018-04-23T01:01:14.842Z,14.80
2018-04-23T01:03:41.240Z,14.90
2018-04-23T01:06:07.630Z,15.23
2018-04-23T01:08:34.809Z,15.63
2018-04-23T01:11:01.208Z,17.03
2018-04-23T01:13:28.345Z,14.53
2018-04-23T01:15:55.547Z,14.10
2018-04-23T01:18:21.958Z,15.27
2018-04-23T01:20:48.372Z,14.13
2018-04-23T01:23:15.535Z,19.10
2018-04-23T01:25:41.940Z,17.30
2018-04-23T01:28:08.347Z,15.67
2018-04-23T01:30:34.781Z,14.33
2018-04-23T01:33:01.172Z,14.50
2018-04-23T01:35:27.577Z,16.97
2018-04-23T01:37:54.752Z,14.73
2018-04-23T01:40:21.166Z,15.23
2018-04-23T01:42:48.316Z,19.17
2018-04-23T01:45:15.492Z,17.03
2018-04-23T01:47:41.897Z,17.07
2018-04-23T01:50:09.053Z,20.17
2018-04-23T01:52:36.207Z,19.57
2018-04-23T01:55:03.369Z,19.63
2018-04-23T01:57:29.772Z,18.30
2018-04-23T01:59:56.920Z,15.00
2018-04-23T02:02:23.330Z,16.00
2018-04-23T02:04:49.700Z,15.87
2018-04-23T02:07:16.855Z,15.03
2018-04-23T02:09:43.259Z,14.60
2018-04-23T02:12:09.686Z,16.63
2018-04-23T02:14:36.132Z,15.73
2018-04-23T02:17:02.593Z,16.10
2018-04-23T02:19:29.076Z,16.60
2018-04-23T02:21:55.472Z,17.73
2018-04-23T02:24:21.872Z,16.70
2018-04-23T02:26:49.016Z,19.57
2018-04-23T02:29:15.414Z,17.70
2018-04-23T02:31:41.861Z,17.80
2018-04-23T02:34:08.259Z,18.17
2018-04-23T02:36:34.670Z,18.33
2018-04-23T02:39:01.081Z,18.40
2018-04-23T02:41:28.232Z,17.30
2018-04-23T02:43:54.629Z,18.43
2018-04-23T02:46:21.046Z,18.37
2018-04-23T02:48:47.446Z,17.37
2018-04-23T02:51:14.598Z,17.80
2018-04-23T02:53:41.013Z,15.73
2018-04-23T02:56:08.157Z,18.00
2018-04-23T02:58:34.542Z,17.27
2018-04-23T03:01:00.934Z,17.70
2018-04-23T03:03:28.064Z,20.73
2018-04-23T03:05:55.972Z,19.30
2018-04-23T03:08:22.366Z,18.83
2018-04-23T03:10:50.376Z,16.47
2018-04-23T03:13:16.795Z,16.90
2018-04-23T03:15:43.202Z,17.43
2018-04-23T03:18:10.360Z,18.00
2018-04-23T03:20:38.801Z,16.53
2018-04-23T03:23:05.211Z,16.73
2018-04-23T03:25:31.612Z,18.80
2018-04-23T03:27:58.808Z,18.80
2018-04-23T03:30:25.203Z,18.30
2018-04-23T03:32:52.334Z,31.37
2018-04-23T03:35:18.771Z,29.20
2018-04-23T03:37:45.912Z,27.33
2018-04-23T03:40:12.324Z,24.67
2018-04-23T03:42:38.771Z,23.23
2018-04-23T03:45:05.191Z,22.27
2018-04-23T03:47:31.585Z,23.40
2018-04-23T03:49:57.978Z,22.70
2018-04-23T03:52:24.379Z,20.40
2018-04-23T03:54:50.771Z,25.77
2018-04-23T03:57:17.181Z,25.10
2018-04-23T03:59:44.345Z,20.80
2018-04-23T04:02:10.773Z,25.93
2018-04-23T04:04:37.923Z,23.50
2018-04-23T04:07:05.088Z,22.00
2018-04-23T04:09:32.221Z,23.23
2018-04-23T04:12:11.686Z,21.70
2018-04-23T04:14:50.663Z,21.77
2018-04-23T04:17:17.110Z,22.80
2018-04-23T04:19:44.252Z,23.60
2018-04-23T04:22:10.698Z,22.47
2018-04-23T04:24:37.836Z,22.87
2018-04-23T04:27:05.364Z,23.23
2018-04-23T04:29:31.751Z,22.80
2018-04-23T04:31:59.021Z,24.00
2018-04-23T04:34:25.441Z,23.90
2018-04-23T04:36:51.902Z,22.60
2018-04-23T04:39:18.316Z,23.97
2018-04-23T04:41:44.725Z,26.53
2018-04-23T04:44:11.869Z,24.53
2018-04-23T04:46:39.014Z,24.60
2018-04-23T04:49:06.146Z,23.87
2018-04-23T04:51:32.542Z,27.67
2018-04-23T04:53:58.937Z,24.67
2018-04-23T04:56:26.097Z,24.70
2018-04-23T04:58:53.230Z,26.77
2018-04-23T05:01:20.372Z,26.10
2018-04-23T05:03:46.796Z,24.03
2018-04-23T05:06:13.200Z,25.87
2018-04-23T05:08:39.608Z,23.70
2018-04-23T05:11:06.770Z,24.73
2018-04-23T05:13:33.170Z,24.17
2018-04-23T05:16:00.311Z,23.90
2018-04-23T05:18:26.747Z,25.63
2018-04-23T05:20:53.179Z,21.30
2018-04-23T05:23:19.592Z,26.40
2018-04-23T05:25:46.007Z,25.70
2018-04-23T05:28:12.434Z,26.70
2018-04-23T05:30:38.836Z,25.20
2018-04-23T05:33:05.320Z,24.53
2018-04-23T05:35:31.761Z,25.33
2018-04-23T05:37:58.183Z,26.17
2018-04-23T05:40:24.580Z,27.30
2018-04-23T05:42:51.008Z,26.90
2018-04-23T05:45:17.455Z,26.97
2018-04-23T05:47:43.847Z,22.37
2018-04-23T05:50:10.321Z,21.60
2018-04-23T05:52:36.719Z,23.03
2018-04-23T05:55:03.878Z,20.53
2018-04-23T05:57:31.050Z,18.93
2018-04-23T05:59:57.446Z,17.80
2018-04-23T06:02:24.603Z,20.80
2018-04-23T06:04:51.762Z,18.50
2018-04-23T06:07:18.170Z,17.70
2018-04-23T06:09:45.301Z,20.13
2018-04-23T06:12:11.711Z,20.43
2018-04-23T06:14:38.133Z,20.67
2018-04-23T06:17:04.539Z,19.90
2018-04-23T06:19:30.984Z,19.40
2018-04-23T06:21:57.387Z,17.47
2018-04-23T06:24:24.597Z,17.57
2018-04-23T06:26:51.005Z,17.70
2018-04-23T06:29:17.402Z,16.90
2018-04-23T06:31:43.811Z,17.43
2018-04-23T06:34:11.689Z,18.47
2018-04-23T06:36:38.100Z,18.70
2018-04-23T06:39:04.552Z,19.07
2018-04-23T06:41:32.460Z,17.60
2018-04-23T06:43:58.917Z,18.50
2018-04-23T06:46:25.382Z,18.50
2018-04-23T06:48:51.734Z,17.40
2018-04-23T06:51:18.953Z,16.27
2018-04-23T06:53:45.365Z,15.07
2018-04-23T06:56:11.779Z,16.57
2018-04-23T06:58:38.168Z,14.60
2018-04-23T07:01:04.610Z,13.80
2018-04-23T07:03:32.494Z,14.63
2018-04-23T07:05:59.658Z,15.03
2018-04-23T07:08:26.104Z,14.30
2018-04-23T07:10:52.500Z,15.37
2018-04-23T07:13:19.639Z,15.37
2018-04-23T07:15:47.558Z,14.93
2018-04-23T07:18:13.979Z,14.90
2018-04-23T07:20:40.385Z,12.57
2018-04-23T07:23:07.575Z,14.30
2018-04-23T07:25:33.962Z,13.13
2018-04-23T07:28:01.126Z,12.90
2018-04-23T07:30:28.259Z,12.90
2018-04-23T07:32:54.657Z,12.93
2018-04-23T07:35:21.049Z,14.20
2018-04-23T07:37:48.220Z,12.10
2018-04-23T07:40:14.626Z,12.53
2018-04-23T07:42:41.759Z,12.40
2018-04-23T07:45:09.654Z,11.47
2018-04-23T07:47:36.063Z,10.90
2018-04-23T07:50:03.256Z,10.50
2018-04-23T07:52:29.663Z,11.33
2018-04-23T07:54:56.800Z,10.40
2018-04-23T07:57:23.314Z,10.20
2018-04-23T07:59:49.747Z,10.37
2018-04-23T08:02:16.190Z,9.70
2018-04-23T08:04:43.341Z,9.27
2018-04-23T08:07:11.218Z,9.50
2018-04-23T08:09:38.415Z,8.40
2018-04-23T08:12:04.834Z,7.93
2018-04-23T08:14:31.242Z,7.30
2018-04-23T08:16:58.369Z,7.90
2018-04-23T08:19:26.260Z,6.60
2018-04-23T08:21:53.394Z,6.23
2018-04-23T08:24:21.290Z,6.17
2018-04-23T08:26:48.421Z,6.23
2018-04-23T08:29:14.841Z,6.00
2018-04-23T08:31:41.268Z,6.00
2018-04-23T08:34:09.156Z,5.17
2018-04-23T08:36:36.327Z,6.17
2018-04-23T08:39:02.847Z,5.40
2018-04-23T08:41:30.011Z,6.33
2018-04-23T08:43:56.473Z,6.30
2018-04-23T08:46:22.859Z,5.67
2018-04-23T08:48:49.252Z,6.23
2018-04-23T08:51:15.716Z,6.03
2018-04-23T08:53:42.164Z,6.10
2018-04-23T08:56:08.638Z,7.03
2018-04-23T08:58:35.044Z,6.17
2018-04-23T09:03:35.638Z,5.83
2018-04-23T09:06:02.041Z,5.50
2018-04-23T09:08:28.451Z,5.53
2018-04-23T09:10:55.627Z,5.90
2018-04-23T09:13:22.063Z,5.40
2018-04-23T09:15:48.474Z,5.50
2018-04-23T09:18:15.628Z,5.50
2018-04-23T09:20:42.029Z,4.90
2018-04-23T09:23:08.430Z,4.97
2018-04-23T09:25:34.837Z,5.57
2018-04-23T09:28:01.237Z,5.67
2018-04-23T09:30:28.383Z,5.10
2018-04-23T09:32:56.918Z,6.00
2018-04-23T09:35:23.330Z,4.70
2018-04-23T09:37:49.726Z,5.27
2018-04-23T09:40:16.132Z,6.60
2018-04-23T09:42:42.511Z,5.30
2018-04-23T09:45:09.730Z,7.80
2018-04-23T09:47:36.143Z,5.80
2018-04-23T09:50:02.599Z,7.20
2018-04-23T09:52:31.035Z,5.63
2018-04-23T09:54:57.524Z,5.30
2018-04-23T09:57:23.933Z,6.00
2018-04-23T09:59:50.368Z,6.03
2018-04-23T10:02:20.625Z,6.57
2018-04-23T10:04:47.954Z,5.73
2018-04-23T10:07:15.111Z,6.33
2018-04-23T10:09:41.529Z,6.47
2018-04-23T10:12:07.997Z,6.10
2018-04-23T10:14:34.395Z,5.77
2018-04-23T10:17:00.800Z,5.90
2018-04-23T10:19:27.203Z,5.97
2018-04-23T10:21:54.343Z,5.50
2018-04-23T10:24:21.545Z,5.77
2018-04-23T10:26:47.959Z,5.60
2018-04-23T10:29:14.363Z,5.97
2018-04-23T10:31:40.751Z,5.67
2018-04-23T10:34:07.161Z,5.10
2018-04-23T10:36:33.580Z,5.23
2018-04-23T10:38:59.999Z,5.27
2018-04-23T10:41:26.408Z,5.20
2018-04-23T10:43:52.822Z,4.73
2018-04-23T10:46:19.224Z,5.10
2018-04-23T10:48:45.640Z,5.40
2018-04-23T10:51:12.793Z,5.60
2018-04-23T10:53:39.182Z,5.50
2018-04-23T10:56:12.588Z,5.20
2018-04-23T10:58:40.487Z,5.43
2018-04-23T11:01:06.910Z,6.00
2018-04-23T11:03:34.065Z,5.20
2018-04-23T11:06:01.356Z,6.03
2018-04-23T11:08:27.767Z,4.80
2018-04-23T11:10:54.169Z,5.63
2018-04-23T11:13:20.564Z,5.50
2018-04-23T11:15:46.963Z,6.40
2018-04-23T11:18:13.368Z,5.17
2018-04-23T11:20:40.520Z,5.57
2018-04-23T11:23:06.897Z,5.37
2018-04-23T11:25:33.301Z,5.50
2018-04-23T11:28:00.431Z,5.20
2018-04-23T11:30:26.819Z,5.50
2018-04-23T11:32:53.211Z,5.20
2018-04-23T11:35:20.353Z,5.20
2018-04-23T11:37:46.761Z,6.27
2018-04-23T11:40:13.884Z,5.83
2018-04-23T11:42:40.293Z,5.27
2018-04-23T11:45:06.788Z,5.37
2018-04-23T11:47:33.191Z,5.70
2018-04-23T11:49:59.595Z,5.53
2018-04-23T11:52:25.985Z,5.80
2018-04-23T11:54:52.392Z,5.43
2018-04-23T11:57:18.793Z,5.90
2018-04-23T11:59:45.176Z,6.07
2018-04-23T12:02:11.583Z,6.67
2018-04-23T12:04:38.010Z,6.93
2018-04-23T12:07:04.406Z,6.10
2018-04-23T12:09:31.583Z,5.60
2018-04-23T12:11:57.979Z,5.67
2018-04-23T12:14:25.130Z,5.53
2018-04-23T12:16:52.277Z,6.13
2018-04-23T12:19:18.681Z,5.60
2018-04-23T12:21:45.155Z,5.07
2018-04-23T12:24:13.381Z,5.70
2018-04-23T12:26:39.798Z,6.13
2018-04-23T12:29:06.178Z,6.13
2018-04-23T12:31:32.566Z,4.80
2018-04-23T12:33:58.959Z,5.00
2018-04-23T12:36:25.354Z,5.00
2018-04-23T12:38:51.730Z,5.63
2018-04-23T12:41:18.865Z,5.70
2018-04-23T12:43:45.996Z,5.73
2018-04-23T12:46:13.873Z,5.57
2018-04-23T12:48:40.303Z,5.13
2018-04-23T12:51:06.709Z,6.33
2018-04-23T12:53:33.099Z,7.07
2018-04-23T12:56:00.074Z,6.10
2018-04-23T12:58:26.497Z,6.03
2018-04-23T13:00:52.902Z,6.13
2018-04-23T13:03:20.038Z,5.80
2018-04-23T13:05:46.471Z,5.57
2018-04-23T13:08:13.634Z,5.93
2018-04-23T13:10:40.769Z,6.50
2018-04-23T13:13:07.164Z,5.77
2018-04-23T13:15:33.547Z,6.33
2018-04-23T13:18:00.692Z,5.17
2018-04-23T13:20:27.821Z,6.20
2018-04-23T13:22:54.353Z,5.30
2018-04-23T13:25:22.223Z,5.40
2018-04-23T13:27:48.618Z,5.67
2018-04-23T13:30:15.078Z,5.80
2018-04-23T13:32:42.990Z,5.60
2018-04-23T13:35:09.403Z,4.80
2018-04-23T13:37:35.807Z,5.10
2018-04-23T13:40:02.224Z,4.90
2018-04-23T13:42:28.675Z,4.77
2018-04-23T13:44:55.074Z,4.80
2018-04-23T13:47:21.503Z,4.13
2018-04-23T13:49:47.900Z,3.53
2018-04-23T13:52:14.297Z,4.03
2018-04-23T13:54:40.705Z,4.77
2018-04-23T13:57:07.098Z,3.70
2018-04-23T13:59:33.511Z,3.43
2018-04-23T14:02:01.426Z,3.47
2018-04-23T14:04:27.844Z,3.50
2018-04-23T14:06:59.298Z,3.73
2018-04-23T14:09:25.649Z,4.57
2018-04-23T14:11:52.802Z,4.20
2018-04-23T14:14:19.252Z,4.10
2018-04-23T14:16:45.754Z,4.67
2018-04-23T14:19:12.893Z,4.87
2018-04-23T14:21:40.053Z,4.63
2018-04-23T14:24:07.199Z,4.80
2018-04-23T14:26:34.356Z,4.33
2018-04-23T14:29:01.511Z,3.93
2018-04-23T14:31:27.942Z,3.57
2018-04-23T14:33:54.338Z,3.40
2018-04-23T14:36:20.724Z,4.70
2018-04-23T14:38:47.227Z,4.20
2018-04-23T14:41:14.371Z,4.73
2018-04-23T14:43:40.774Z,3.80
2018-04-23T14:46:07.175Z,4.70
2018-04-23T14:48:33.609Z,4.10
2018-04-23T14:51:00.032Z,3.93
2018-04-23T14:53:26.440Z,4.33
2018-04-23T14:55:53.651Z,4.97
2018-04-23T14:58:20.040Z,4.40
2018-04-23T15:00:46.464Z,4.30
2018-04-23T15:03:13.627Z,3.70
2018-04-23T15:05:40.199Z,4.27
2018-04-23T15:08:06.700Z,4.73
2018-04-23T15:10:33.152Z,3.50
2018-04-23T15:12:59.598Z,3.53
2018-04-23T15:15:25.992Z,4.67
2018-04-23T15:17:53.148Z,3.97
2018-04-23T15:20:19.552Z,4.10
2018-04-23T15:22:45.971Z,3.83
2018-04-23T15:25:12.395Z,4.33
2018-04-23T15:27:38.811Z,5.90
2018-04-23T15:30:05.214Z,6.20
2018-04-23T15:32:31.663Z,6.67
2018-04-23T15:34:58.051Z,6.20
2018-04-23T15:37:24.456Z,5.70
2018-04-23T15:39:51.011Z,5.67
2018-04-23T15:42:18.252Z,5.60
2018-04-23T15:44:44.642Z,5.93
2018-04-23T15:47:11.082Z,5.33
2018-04-23T15:49:37.494Z,6.30
2018-04-23T15:52:03.920Z,5.13
2018-04-23T15:54:31.139Z,5.37
2018-04-23T15:56:57.547Z,5.33
2018-04-23T15:59:23.928Z,5.07
2018-04-23T16:01:51.053Z,5.30
2018-04-23T16:04:17.450Z,5.50
2018-04-23T16:06:43.882Z,4.70
2018-04-23T16:09:10.271Z,5.73
2018-04-23T16:11:36.700Z,5.40
2018-04-23T16:14:03.840Z,5.47
2018-04-23T16:16:30.241Z,5.70
2018-04-23T16:18:56.626Z,5.13
2018-04-23T16:21:24.685Z,4.73
2018-04-23T16:23:51.831Z,4.97
2018-04-23T16:26:18.231Z,5.07
2018-04-23T16:28:44.630Z,5.23
2018-04-23T16:31:11.053Z,5.60
2018-04-23T16:33:37.537Z,5.73
2018-04-23T16:36:03.991Z,5.00
2018-04-23T16:38:30.411Z,4.40
2018-04-23T16:40:56.853Z,5.77
2018-04-23T16:43:23.348Z,5.40
2018-04-23T16:45:49.782Z,4.90
2018-04-23T16:48:16.204Z,5.27
2018-04-23T16:50:43.456Z,5.10
2018-04-23T16:53:09.878Z,5.07
2018-04-23T16:55:37.048Z,5.00
2018-04-23T16:58:03.485Z,6.23
2018-04-23T17:00:29.901Z,6.33
2018-04-23T17:02:57.056Z,6.00
2018-04-23T17:05:23.470Z,5.40
2018-04-23T17:07:50.641Z,5.60
2018-04-23T17:10:17.073Z,6.00
2018-04-23T17:12:43.499Z,5.27
2018-04-23T17:15:09.923Z,5.50
2018-04-23T17:17:37.100Z,5.80
2018-04-23T17:20:03.574Z,5.10
2018-04-23T17:22:30.043Z,5.63
2018-04-23T17:24:56.501Z,5.50
2018-04-23T17:27:22.923Z,6.13
2018-04-23T17:29:49.365Z,5.60
2018-04-23T17:32:15.810Z,6.07
2018-04-23T17:34:42.282Z,5.43
2018-04-23T17:37:08.695Z,5.57
2018-04-23T17:39:35.126Z,5.83
2018-04-23T17:42:01.589Z,7.10
2018-04-23T17:44:28.041Z,7.27
2018-04-23T17:46:55.331Z,6.07
2018-04-23T17:49:21.761Z,5.33
2018-04-23T17:51:48.255Z,6.93
2018-04-23T17:54:15.435Z,5.87
2018-04-23T17:56:41.890Z,5.80
2018-04-23T17:59:08.288Z,5.47
2018-04-23T18:01:35.431Z,5.83
2018-04-23T18:04:02.610Z,5.43
2018-04-23T18:06:29.040Z,5.00
2018-04-23T18:08:55.492Z,7.40
2018-04-23T18:11:21.905Z,7.30
2018-04-23T18:13:48.301Z,8.30
2018-04-23T18:16:15.436Z,6.60
2018-04-23T18:18:41.846Z,11.00
2018-04-23T18:21:08.266Z,85.17
2018-04-23T18:23:34.873Z,84.83
2018-04-23T18:26:02.027Z,30.43
2018-04-23T18:28:28.541Z,8.90
2018-04-23T18:30:55.766Z,8.30
2018-04-23T18:33:22.163Z,7.53
2018-04-23T18:35:48.746Z,6.50
2018-04-23T18:38:15.154Z,6.87
2018-04-23T18:40:41.548Z,7.23
2018-04-23T18:43:08.698Z,6.83
2018-04-23T18:45:35.186Z,7.33
2018-04-23T18:48:01.583Z,6.63
2018-04-23T18:50:28.051Z,6.63
2018-04-23T18:52:56.076Z,6.50
2018-04-23T18:55:22.485Z,6.80
2018-04-23T18:57:49.627Z,5.60
2018-04-23T19:00:16.032Z,6.93
2018-04-23T19:02:42.437Z,6.40
2018-04-23T19:05:08.832Z,6.00
2018-04-23T19:07:35.961Z,7.23
2018-04-23T19:10:02.397Z,7.60
2018-04-23T19:12:28.795Z,7.70
2018-04-23T19:14:55.201Z,8.60
2018-04-23T19:17:21.603Z,8.40
2018-04-23T19:19:47.992Z,7.83
2018-04-23T19:22:14.375Z,7.50
2018-04-23T19:24:40.867Z,7.97
2018-04-23T19:27:07.261Z,7.20
2018-04-23T19:29:34.387Z,8.17
2018-04-23T19:32:00.810Z,8.13
2018-04-23T19:34:27.185Z,8.07
2018-04-23T19:36:53.579Z,7.63
2018-04-23T19:39:20.079Z,7.93
2018-04-23T19:41:46.528Z,8.13
2018-04-23T19:44:12.931Z,7.80
2018-04-23T19:46:39.336Z,7.83
2018-04-23T19:49:06.482Z,8.77
2018-04-23T19:51:33.628Z,8.20
2018-04-23T19:54:00.939Z,8.53
2018-04-23T19:56:27.361Z,8.37
2018-04-23T19:58:53.788Z,8.50
2018-04-23T20:01:20.209Z,7.53
2018-04-23T20:03:46.621Z,9.40
2018-04-23T20:06:13.762Z,8.20
2018-04-23T20:08:40.920Z,7.53
2018-04-23T20:11:08.051Z,7.43
2018-04-23T20:13:34.444Z,7.23
2018-04-23T20:16:00.867Z,7.10
2018-04-23T20:18:27.276Z,7.80
2018-04-23T20:20:53.680Z,7.20
2018-04-23T20:23:20.121Z,7.77
2018-04-23T20:25:46.528Z,8.57
2018-04-23T20:28:12.919Z,7.80
2018-04-23T20:30:39.370Z,7.50
2018-04-23T20:33:05.773Z,7.07
2018-04-23T20:35:32.219Z,7.37
2018-04-23T20:37:58.600Z,8.33
2018-04-23T20:40:25.030Z,9.10
2018-04-23T20:42:51.458Z,8.67
2018-04-23T20:45:17.904Z,7.87
2018-04-23T20:47:44.303Z,9.40
2018-04-23T20:50:10.726Z,7.27
2018-04-23T20:52:37.137Z,8.83
2018-04-23T20:55:03.578Z,8.00
2018-04-23T20:57:30.070Z,9.63
2018-04-23T20:59:56.504Z,8.67
2018-04-23T21:02:23.671Z,8.50
2018-04-23T21:04:50.845Z,8.27
2018-04-23T21:07:17.287Z,9.33
2018-04-23T21:09:43.697Z,9.43
2018-04-23T21:12:10.835Z,8.93
2018-04-23T21:14:37.979Z,9.20
2018-04-23T21:17:04.396Z,9.63
2018-04-23T21:19:30.789Z,8.57
2018-04-23T21:21:57.205Z,9.87
2018-04-23T21:24:23.642Z,9.20
2018-04-23T21:26:50.053Z,10.03
2018-04-23T21:29:17.221Z,9.30
2018-04-23T21:31:43.636Z,9.40
2018-04-23T21:34:10.772Z,8.90
2018-04-23T21:36:37.168Z,9.10
2018-04-23T21:39:04.564Z,8.07
2018-04-23T21:41:30.939Z,9.00
2018-04-23T21:43:57.337Z,9.60
2018-04-23T21:46:24.529Z,8.70
2018-04-23T21:48:50.947Z,7.90
2018-04-23T21:51:17.345Z,9.60
2018-04-23T21:53:44.475Z,9.93
2018-04-23T21:56:10.879Z,8.67
2018-04-23T21:58:37.307Z,9.13
2018-04-23T22:01:03.738Z,9.50
2018-04-23T22:03:30.127Z,9.03
2018-04-23T22:05:57.290Z,9.30
2018-04-23T22:08:24.465Z,8.93
2018-04-23T22:10:51.004Z,8.80
2018-04-23T22:13:17.428Z,9.20
2018-04-23T22:15:43.827Z,9.00
2018-04-23T22:18:10.239Z,9.67
2018-04-23T22:20:36.645Z,9.20
2018-04-23T22:23:03.068Z,9.63
2018-04-23T22:25:29.493Z,9.03
2018-04-23T22:27:55.903Z,8.43
2018-04-23T22:30:23.039Z,9.80
2018-04-23T22:32:49.479Z,9.13
2018-04-23T22:35:16.621Z,8.47
2018-04-23T22:37:43.048Z,9.80
2018-04-23T22:40:09.460Z,8.60
2018-04-23T22:42:35.862Z,8.40
2018-04-23T22:45:02.389Z,9.43
2018-04-23T22:47:28.784Z,9.53
2018-04-23T22:49:55.358Z,8.60
2018-04-23T22:52:21.758Z,9.67
2018-04-23T22:54:48.243Z,8.97
2018-04-23T22:57:14.659Z,10.27
2018-04-23T22:59:41.046Z,9.70
2018-04-23T23:02:07.442Z,9.23
2018-04-23T23:04:33.845Z,9.77
2018-04-23T23:07:00.256Z,9.57
2018-04-23T23:09:26.652Z,8.90
2018-04-23T23:11:53.106Z,9.60
2018-04-23T23:14:19.511Z,10.33
2018-04-23T23:16:45.919Z,9.90
2018-04-23T23:19:12.312Z,10.23
2018-04-23T23:21:39.459Z,9.27
2018-04-23T23:24:05.880Z,10.03
2018-04-23T23:26:33.809Z,8.93
2018-04-23T23:29:00.222Z,9.90
2018-04-23T23:31:26.633Z,9.70
2018-04-23T23:33:53.029Z,9.47
2018-04-23T23:36:19.420Z,9.83
2018-04-23T23:38:46.552Z,8.87
2018-04-23T23:41:13.752Z,10.70
2018-04-23T23:43:40.164Z,10.77
2018-04-23T23:46:06.552Z,10.10
2018-04-23T23:48:32.939Z,9.87
2018-04-23T23:50:59.370Z,9.97
2018-04-23T23:53:25.776Z,10.17
2018-04-23T23:55:52.919Z,8.93
2018-04-23T23:58:20.096Z,9.50
